sensor_id;sensor_type;location;lat;lon;timestamp;pressure;altitude;pressure_sealevel;temperature;humidity
1736;BME280;865;53.672;10.250;2023-05-20T00:01:22;102360.94;;;8.69;100.00
1736;BME280;865;53.672;10.250;2023-05-20T00:03:48;102353.97;;;8.67;100.00
1736;BME280;865;53.672;10.250;2023-05-20T00:06:15;102362.28;;;8.42;100.00
1736;BME280;865;53.672;10.250;2023-05-20T00:08:41;102351.75;;;8.37;100.00
1736;BME280;865;53.672;10.250;2023-05-20T00:11:08;102354.34;;;8.37;100.00
1736;BME280;865;53.672;10.250;2023-05-20T00:13:34;102359.56;;;8.37;100.00
1736;BME280;865;53.672;10.250;2023-05-20T00:16:01;102360.53;;;8.44;100.00
1736;BME280;865;53.672;10.250;2023-05-20T00:18:27;102362.41;;;8.53;100.00
1736;BME280;865;53.672;10.250;2023-05-20T00:20:54;102365.78;;;8.47;100.00
1736;BME280;865;53.672;10.250;2023-05-20T00:23:20;102363.38;;;8.58;100.00
1736;BME280;865;53.672;10.250;2023-05-20T00:25:48;102362.38;;;8.48;100.00
1736;BME280;865;53.672;10.250;2023-05-20T00:28:15;102363.41;;;8.61;100.00
1736;BME280;865;53.672;10.250;2023-05-20T00:30:41;102364.41;;;8.69;100.00
1736;BME280;865;53.672;10.250;2023-05-20T00:33:08;102355.72;;;8.70;100.00
1736;BME280;865;53.672;10.250;2023-05-20T00:35:34;102368.75;;;8.70;100.00
1736;BME280;865;53.672;10.250;2023-05-20T00:38:03;102360.03;;;8.68;100.00
1736;BME280;865;53.672;10.250;2023-05-20T00:40:30;102358.28;;;8.67;100.00
1736;BME280;865;53.672;10.250;2023-05-20T00:42:57;102362.72;;;8.74;100.00
1736;BME280;865;53.672;10.250;2023-05-20T00:45:23;102364.50;;;8.77;100.00
1736;BME280;865;53.672;10.250;2023-05-20T00:47:50;102359.22;;;8.71;100.00
1736;BME280;865;53.672;10.250;2023-05-20T00:50:17;102362.47;;;8.56;100.00
1736;BME280;865;53.672;10.250;2023-05-20T00:52:44;102352.91;;;8.55;100.00
1736;BME280;865;53.672;10.250;2023-05-20T00:55:13;102353.91;;;8.64;100.00
1736;BME280;865;53.672;10.250;2023-05-20T00:57:39;102351.34;;;8.67;100.00
1736;BME280;865;53.672;10.250;2023-05-20T01:00:06;102355.63;;;8.62;100.00
1736;BME280;865;53.672;10.250;2023-05-20T01:02:33;102355.69;;;8.67;100.00
1736;BME280;865;53.672;10.250;2023-05-20T01:05:00;102347.94;;;8.69;100.00
1736;BME280;865;53.672;10.250;2023-05-20T01:07:26;102354.09;;;8.77;100.00
1736;BME280;865;53.672;10.250;2023-05-20T01:09:53;102354.88;;;8.70;100.00
1736;BME280;865;53.672;10.250;2023-05-20T01:12:25;102347.06;;;8.70;100.00
1736;BME280;865;53.672;10.250;2023-05-20T01:15:10;102348.50;;;8.49;100.00
1736;BME280;865;53.672;10.250;2023-05-20T01:17:45;102349.06;;;8.31;100.00
1736;BME280;865;53.672;10.250;2023-05-20T01:20:13;102353.25;;;8.21;100.00
1736;BME280;865;53.672;10.250;2023-05-20T01:22:47;102343.81;;;8.28;100.00
1736;BME280;865;53.672;10.250;2023-05-20T01:25:13;102350.84;;;8.34;100.00
1736;BME280;865;53.672;10.250;2023-05-20T01:27:40;102348.84;;;8.17;100.00
1736;BME280;865;53.672;10.250;2023-05-20T01:30:07;102352.16;;;8.09;100.00
1736;BME280;865;53.672;10.250;2023-05-20T01:32:37;102351.38;;;8.14;100.00
1736;BME280;865;53.672;10.250;2023-05-20T01:35:06;102341.84;;;8.13;100.00
1736;BME280;865;53.672;10.250;2023-05-20T01:37:38;102340.97;;;8.14;100.00
1736;BME280;865;53.672;10.250;2023-05-20T01:40:09;102339.53;;;8.30;100.00
1736;BME280;865;53.672;10.250;2023-05-20T01:42:38;102336.22;;;8.39;100.00
1736;BME280;865;53.672;10.250;2023-05-20T01:45:05;102339.56;;;8.35;100.00
1736;BME280;865;53.672;10.250;2023-05-20T01:47:32;102344.91;;;8.41;100.00
1736;BME280;865;53.672;10.250;2023-05-20T01:49:58;102345.00;;;8.46;100.00
1736;BME280;865;53.672;10.250;2023-05-20T01:52:25;102338.88;;;8.42;100.00
1736;BME280;865;53.672;10.250;2023-05-20T01:54:51;102345.03;;;8.50;100.00
1736;BME280;865;53.672;10.250;2023-05-20T01:57:21;102345.00;;;8.46;100.00
1736;BME280;865;53.672;10.250;2023-05-20T01:59:48;102345.78;;;8.41;100.00
1736;BME280;865;53.672;10.250;2023-05-20T02:02:15;102343.78;;;8.27;100.00
1736;BME280;865;53.672;10.250;2023-05-20T02:04:44;102342.03;;;8.26;100.00
1736;BME280;865;53.672;10.250;2023-05-20T02:07:14;102337.84;;;8.34;100.00
1736;BME280;865;53.672;10.250;2023-05-20T02:09:40;102335.97;;;8.27;100.00
1736;BME280;865;53.672;10.250;2023-05-20T02:12:07;102335.97;;;8.27;100.00
1736;BME280;865;53.672;10.250;2023-05-20T02:14:34;102335.97;;;8.27;100.00
1736;BME280;865;53.672;10.250;2023-05-20T02:17:00;102331.59;;;8.21;100.00
1736;BME280;865;53.672;10.250;2023-05-20T02:19:27;102335.78;;;8.14;100.00
1736;BME280;865;53.672;10.250;2023-05-20T02:21:53;102340.94;;;8.11;100.00
1736;BME280;865;53.672;10.250;2023-05-20T02:24:20;102341.03;;;8.16;100.00
1736;BME280;865;53.672;10.250;2023-05-20T02:26:46;102342.06;;;8.27;100.00
1736;BME280;865;53.672;10.250;2023-05-20T02:29:14;102333.47;;;8.31;100.00
1736;BME280;865;53.672;10.250;2023-05-20T02:31:41;102325.72;;;8.34;100.00
1736;BME280;865;53.672;10.250;2023-05-20T02:34:07;102334.97;;;8.15;100.00
1736;BME280;865;53.672;10.250;2023-05-20T02:36:34;102323.66;;;8.15;100.00
1736;BME280;865;53.672;10.250;2023-05-20T02:39:00;102325.47;;;8.20;100.00
1736;BME280;865;53.672;10.250;2023-05-20T02:41:27;102326.41;;;8.22;100.00
1736;BME280;865;53.672;10.250;2023-05-20T02:43:53;102327.94;;;8.10;100.00
1736;BME280;865;53.672;10.250;2023-05-20T02:46:20;102325.44;;;8.17;100.00
1736;BME280;865;53.672;10.250;2023-05-20T02:48:46;102327.16;;;8.15;100.00
1736;BME280;865;53.672;10.250;2023-05-20T02:51:13;102334.88;;;8.11;100.00
1736;BME280;865;53.672;10.250;2023-05-20T02:53:39;102334.88;;;8.11;100.00
1736;BME280;865;53.672;10.250;2023-05-20T02:56:06;102325.28;;;8.08;100.00
1736;BME280;865;53.672;10.250;2023-05-20T02:58:34;102334.88;;;8.09;100.00
1736;BME280;865;53.672;10.250;2023-05-20T03:01:01;102339.16;;;8.07;100.00
1736;BME280;865;53.672;10.250;2023-05-20T03:03:27;102339.88;;;8.00;100.00
1736;BME280;865;53.672;10.250;2023-05-20T03:05:54;102351.94;;;7.96;100.00
1736;BME280;865;53.672;10.250;2023-05-20T03:08:21;102356.38;;;8.01;100.00
1736;BME280;865;53.672;10.250;2023-05-20T03:10:48;102356.47;;;8.08;100.00
1736;BME280;865;53.672;10.250;2023-05-20T03:13:14;102350.66;;;8.23;100.00
1736;BME280;865;53.672;10.250;2023-05-20T03:15:41;102347.94;;;8.15;100.00
1736;BME280;865;53.672;10.250;2023-05-20T03:18:10;102347.84;;;8.09;100.00
1736;BME280;865;53.672;10.250;2023-05-20T03:20:38;102347.88;;;8.11;100.00
1736;BME280;865;53.672;10.250;2023-05-20T03:23:05;102345.16;;;8.05;100.00
1736;BME280;865;53.672;10.250;2023-05-20T03:25:32;102348.53;;;7.97;100.00
1736;BME280;865;53.672;10.250;2023-05-20T03:27:59;102338.19;;;8.01;100.00
1736;BME280;865;53.672;10.250;2023-05-20T03:30:26;102342.66;;;8.11;100.00
1736;BME280;865;53.672;10.250;2023-05-20T03:32:55;102338.53;;;8.22;100.00
1736;BME280;865;53.672;10.250;2023-05-20T03:35:23;102338.53;;;8.23;100.00
1736;BME280;865;53.672;10.250;2023-05-20T03:37:50;102348.00;;;8.18;100.00
1736;BME280;865;53.672;10.250;2023-05-20T03:40:19;102349.53;;;8.07;100.00
1736;BME280;865;53.672;10.250;2023-05-20T03:42:46;102350.47;;;8.11;100.00
1736;BME280;865;53.672;10.250;2023-05-20T03:45:13;102346.13;;;8.10;100.00
1736;BME280;865;53.672;10.250;2023-05-20T03:47:39;102348.78;;;8.14;100.00
1736;BME280;865;53.672;10.250;2023-05-20T03:50:06;102344.44;;;8.15;100.00
1736;BME280;865;53.672;10.250;2023-05-20T03:52:32;102348.16;;;8.28;100.00
1736;BME280;865;53.672;10.250;2023-05-20T03:54:59;102344.06;;;8.43;100.00
1736;BME280;865;53.672;10.250;2023-05-20T03:57:26;102344.22;;;8.53;100.00
1736;BME280;865;53.672;10.250;2023-05-20T03:59:54;102341.72;;;8.60;100.00
1736;BME280;865;53.672;10.250;2023-05-20T04:02:21;102343.44;;;8.58;100.00
1736;BME280;865;53.672;10.250;2023-05-20T04:04:47;102335.56;;;8.54;100.00
1736;BME280;865;53.672;10.250;2023-05-20T04:07:18;102351.22;;;8.58;100.00
1736;BME280;865;53.672;10.250;2023-05-20T04:09:44;102343.50;;;8.64;100.00
1736;BME280;865;53.672;10.250;2023-05-20T04:12:11;102354.78;;;8.65;100.00
1736;BME280;865;53.672;10.250;2023-05-20T04:14:39;102352.31;;;8.73;100.00
1736;BME280;865;53.672;10.250;2023-05-20T04:17:07;102352.31;;;8.74;100.00
1736;BME280;865;53.672;10.250;2023-05-20T04:19:34;102353.28;;;8.81;100.00
1736;BME280;865;53.672;10.250;2023-05-20T04:22:01;102349.09;;;8.92;100.00
1736;BME280;865;53.672;10.250;2023-05-20T04:24:27;102358.78;;;9.02;100.00
1736;BME280;865;53.672;10.250;2023-05-20T04:26:54;102357.03;;;9.01;100.00
1736;BME280;865;53.672;10.250;2023-05-20T04:29:20;102353.69;;;9.11;100.00
1736;BME280;865;53.672;10.250;2023-05-20T04:31:48;102355.59;;;9.26;100.00
1736;BME280;865;53.672;10.250;2023-05-20T04:34:14;102357.41;;;9.33;100.00
1736;BME280;865;53.672;10.250;2023-05-20T04:36:44;102353.16;;;9.40;100.00
1736;BME280;865;53.672;10.250;2023-05-20T04:39:11;102350.59;;;9.45;100.00
1736;BME280;865;53.672;10.250;2023-05-20T04:41:37;102346.28;;;9.48;100.00
1736;BME280;865;53.672;10.250;2023-05-20T04:44:05;102357.69;;;9.58;100.00
1736;BME280;865;53.672;10.250;2023-05-20T04:46:31;102349.06;;;9.65;100.00
1736;BME280;865;53.672;10.250;2023-05-20T04:48:59;102344.78;;;9.70;100.00
1736;BME280;865;53.672;10.250;2023-05-20T04:51:25;102344.88;;;9.81;100.00
1736;BME280;865;53.672;10.250;2023-05-20T04:53:51;102338.03;;;9.91;100.00
1736;BME280;865;53.672;10.250;2023-05-20T04:56:18;102342.47;;;10.04;100.00
1736;BME280;865;53.672;10.250;2023-05-20T04:58:44;102343.41;;;10.14;100.00
1736;BME280;865;53.672;10.250;2023-05-20T05:01:11;102346.13;;;10.24;100.00
1736;BME280;865;53.672;10.250;2023-05-20T05:03:37;102340.13;;;10.33;100.00
1736;BME280;865;53.672;10.250;2023-05-20T05:06:04;102348.06;;;10.48;100.00
1736;BME280;865;53.672;10.250;2023-05-20T05:08:30;102341.16;;;10.61;100.00
1736;BME280;865;53.672;10.250;2023-05-20T05:10:57;102342.13;;;10.74;100.00
1736;BME280;865;53.672;10.250;2023-05-20T05:13:23;102328.28;;;10.86;100.00
1736;BME280;865;53.672;10.250;2023-05-20T05:15:59;102319.63;;;11.02;100.00
1736;BME280;865;53.672;10.250;2023-05-20T05:18:26;102333.53;;;11.03;100.00
1736;BME280;865;53.672;10.250;2023-05-20T05:21:03;102332.69;;;11.04;100.00
1736;BME280;865;53.672;10.250;2023-05-20T05:23:31;102342.25;;;10.99;100.00
1736;BME280;865;53.672;10.250;2023-05-20T05:25:57;102337.06;;;11.08;100.00
1736;BME280;865;53.672;10.250;2023-05-20T05:28:24;102335.25;;;10.94;100.00
1736;BME280;865;53.672;10.250;2023-05-20T05:30:53;102333.50;;;10.97;100.00
1736;BME280;865;53.672;10.250;2023-05-20T05:33:19;102340.50;;;10.98;100.00
1736;BME280;865;53.672;10.250;2023-05-20T05:35:46;102338.75;;;11.00;100.00
1736;BME280;865;53.672;10.250;2023-05-20T05:38:12;102338.78;;;11.06;100.00
1736;BME280;865;53.672;10.250;2023-05-20T05:40:39;102344.03;;;11.18;100.00
1736;BME280;865;53.672;10.250;2023-05-20T05:43:06;102338.81;;;11.13;100.00
1736;BME280;865;53.672;10.250;2023-05-20T05:45:32;102337.88;;;10.99;100.00
1736;BME280;865;53.672;10.250;2023-05-20T05:47:59;102347.44;;;10.95;100.00
1736;BME280;865;53.672;10.250;2023-05-20T05:50:25;102346.63;;;11.12;100.00
1736;BME280;865;53.672;10.250;2023-05-20T05:52:52;102346.63;;;11.04;100.00
1736;BME280;865;53.672;10.250;2023-05-20T05:55:18;102343.16;;;11.11;100.00
1736;BME280;865;53.672;10.250;2023-05-20T05:57:45;102343.16;;;11.11;100.00
1736;BME280;865;53.672;10.250;2023-05-20T06:00:12;102339.69;;;11.17;100.00
1736;BME280;865;53.672;10.250;2023-05-20T06:02:38;102343.25;;;11.34;100.00
1736;BME280;865;53.672;10.250;2023-05-20T06:05:05;102334.53;;;11.41;100.00
1736;BME280;865;53.672;10.250;2023-05-20T06:07:32;102335.44;;;11.47;100.00
1736;BME280;865;53.672;10.250;2023-05-20T06:09:58;102333.72;;;11.58;100.00
1736;BME280;865;53.672;10.250;2023-05-20T06:12:24;102337.16;;;11.48;100.00
1736;BME280;865;53.672;10.250;2023-05-20T06:14:51;102334.56;;;11.57;100.00
1736;BME280;865;53.672;10.250;2023-05-20T06:17:17;102330.22;;;11.48;100.00
1736;BME280;865;53.672;10.250;2023-05-20T06:19:44;102332.84;;;11.68;100.00
1736;BME280;865;53.672;10.250;2023-05-20T06:22:10;102327.63;;;11.73;100.00
1736;BME280;865;53.672;10.250;2023-05-20T06:24:37;102317.22;;;11.99;100.00
1736;BME280;865;53.672;10.250;2023-05-20T06:27:03;102312.00;;;12.05;100.00
1736;BME280;865;53.672;10.250;2023-05-20T06:29:30;102309.34;;;12.29;100.00
1736;BME280;865;53.672;10.250;2023-05-20T06:31:56;102301.47;;;12.31;100.00
1736;BME280;865;53.672;10.250;2023-05-20T06:34:22;102300.63;;;12.32;100.00
1736;BME280;865;53.672;10.250;2023-05-20T06:36:49;102304.94;;;12.53;100.00
1736;BME280;865;53.672;10.250;2023-05-20T06:39:15;102299.63;;;12.71;100.00
1736;BME280;865;53.672;10.250;2023-05-20T06:41:41;102304.88;;;12.76;100.00
1736;BME280;865;53.672;10.250;2023-05-20T06:44:09;102298.69;;;12.92;100.00
1736;BME280;865;53.672;10.250;2023-05-20T06:46:35;102297.72;;;13.15;100.00
1736;BME280;865;53.672;10.250;2023-05-20T06:49:02;102296.81;;;13.27;100.00
1736;BME280;865;53.672;10.250;2023-05-20T06:51:28;102293.28;;;13.20;100.00
1736;BME280;865;53.672;10.250;2023-05-20T06:53:55;102297.47;;;13.53;100.00
1736;BME280;865;53.672;10.250;2023-05-20T06:56:22;102299.25;;;13.50;100.00
1736;BME280;865;53.672;10.250;2023-05-20T06:58:48;102301.09;;;13.40;100.00
1736;BME280;865;53.672;10.250;2023-05-20T07:01:15;102291.50;;;13.39;100.00
1736;BME280;865;53.672;10.250;2023-05-20T07:03:43;102300.09;;;13.59;100.00
1736;BME280;865;53.672;10.250;2023-05-20T07:06:10;102291.34;;;13.60;100.00
1736;BME280;865;53.672;10.250;2023-05-20T07:08:36;102286.81;;;13.81;100.00
1736;BME280;865;53.672;10.250;2023-05-20T07:11:02;102284.06;;;13.93;100.00
1736;BME280;865;53.672;10.250;2023-05-20T07:13:29;102284.19;;;13.81;100.00
1736;BME280;865;53.672;10.250;2023-05-20T07:15:56;102284.06;;;13.93;100.00
1736;BME280;865;53.672;10.250;2023-05-20T07:18:23;102289.28;;;13.96;100.00
1736;BME280;865;53.672;10.250;2023-05-20T07:20:49;102291.81;;;14.10;100.00
1736;BME280;865;53.672;10.250;2023-05-20T07:23:15;102297.88;;;14.13;100.00
1736;BME280;865;53.672;10.250;2023-05-20T07:25:42;102297.88;;;14.13;100.00
1736;BME280;865;53.672;10.250;2023-05-20T07:28:08;102291.69;;;14.22;100.00
1736;BME280;865;53.672;10.250;2023-05-20T07:30:34;102287.94;;;14.45;100.00
1736;BME280;865;53.672;10.250;2023-05-20T07:33:01;102289.72;;;14.41;100.00
1736;BME280;865;53.672;10.250;2023-05-20T07:35:27;102290.88;;;14.14;100.00
1736;BME280;865;53.672;10.250;2023-05-20T07:37:54;102287.13;;;14.38;100.00
1736;BME280;865;53.672;10.250;2023-05-20T07:40:21;102293.34;;;14.31;100.00
1736;BME280;865;53.672;10.250;2023-05-20T07:42:47;102288.09;;;14.29;100.00
1736;BME280;865;53.672;10.250;2023-05-20T07:45:13;102278.59;;;14.19;100.00
1736;BME280;865;53.672;10.250;2023-05-20T07:47:40;102283.38;;;14.62;100.00
1736;BME280;865;53.672;10.250;2023-05-20T07:50:06;102281.97;;;15.04;100.00
1736;BME280;865;53.672;10.250;2023-05-20T07:52:33;102276.06;;;14.90;100.00
1736;BME280;865;53.672;10.250;2023-05-20T07:55:19;102286.56;;;14.87;100.00
1736;BME280;865;53.672;10.250;2023-05-20T07:57:46;102282.34;;;14.77;100.00
1736;BME280;865;53.672;10.250;2023-05-20T08:00:12;102276.78;;;14.98;100.00
1736;BME280;865;53.672;10.250;2023-05-20T08:02:39;102272.34;;;15.05;100.00
1736;BME280;865;53.672;10.250;2023-05-20T08:05:06;102274.13;;;15.01;100.00
1736;BME280;865;53.672;10.250;2023-05-20T08:07:33;102283.78;;;15.02;100.00
1736;BME280;865;53.672;10.250;2023-05-20T08:10:00;102277.31;;;15.25;100.00
1736;BME280;865;53.672;10.250;2023-05-20T08:12:26;102273.19;;;15.07;100.00
1736;BME280;865;53.672;10.250;2023-05-20T08:14:53;102274.75;;;15.20;100.00
1736;BME280;865;53.672;10.250;2023-05-20T08:17:19;102275.84;;;15.04;100.00
1736;BME280;865;53.672;10.250;2023-05-20T08:19:46;102282.00;;;15.01;100.00
1736;BME280;865;53.672;10.250;2023-05-20T08:22:12;102276.59;;;15.14;100.00
1736;BME280;865;53.672;10.250;2023-05-20T08:24:38;102275.59;;;15.24;100.00
1736;BME280;865;53.672;10.250;2023-05-20T08:27:05;102285.78;;;15.45;100.00
1736;BME280;865;53.672;10.250;2023-05-20T08:29:31;102271.66;;;15.49;100.00
1736;BME280;865;53.672;10.250;2023-05-20T08:31:58;102275.34;;;15.39;100.00
1736;BME280;865;53.672;10.250;2023-05-20T08:34:24;102269.28;;;15.34;100.00
1736;BME280;865;53.672;10.250;2023-05-20T08:36:51;102269.22;;;15.37;100.00
1736;BME280;865;53.672;10.250;2023-05-20T08:39:17;102262.03;;;15.50;100.00
1736;BME280;865;53.672;10.250;2023-05-20T08:41:45;102264.34;;;15.14;100.00
1736;BME280;865;53.672;10.250;2023-05-20T08:44:12;102262.75;;;15.02;100.00
1736;BME280;865;53.672;10.250;2023-05-20T08:46:39;102251.19;;;15.13;100.00
1736;BME280;865;53.672;10.250;2023-05-20T08:49:06;102262.53;;;15.18;100.00
1736;BME280;865;53.672;10.250;2023-05-20T08:51:35;102269.91;;;14.91;100.00
1736;BME280;865;53.672;10.250;2023-05-20T08:54:02;102256.19;;;14.66;100.00
1736;BME280;865;53.672;10.250;2023-05-20T08:56:30;102257.13;;;15.27;100.00
1736;BME280;865;53.672;10.250;2023-05-20T08:58:56;102250.81;;;15.37;100.00
1736;BME280;865;53.672;10.250;2023-05-20T09:01:23;102258.44;;;14.95;100.00
1736;BME280;865;53.672;10.250;2023-05-20T09:03:51;102255.28;;;14.70;100.00
1736;BME280;865;53.672;10.250;2023-05-20T09:06:18;102249.22;;;14.65;100.00
1736;BME280;865;53.672;10.250;2023-05-20T09:08:47;102246.41;;;14.79;100.00
1736;BME280;865;53.672;10.250;2023-05-20T09:11:14;102244.41;;;14.99;100.00
1736;BME280;865;53.672;10.250;2023-05-20T09:13:41;102250.28;;;15.15;100.00
1736;BME280;865;53.672;10.250;2023-05-20T09:16:09;102238.78;;;15.24;100.00
1736;BME280;865;53.672;10.250;2023-05-20T09:18:38;102238.00;;;15.17;100.00
1736;BME280;865;53.672;10.250;2023-05-20T09:21:05;102228.22;;;15.27;100.00
1736;BME280;865;53.672;10.250;2023-05-20T09:23:32;102228.81;;;15.44;100.00
1736;BME280;865;53.672;10.250;2023-05-20T09:26:02;102226.84;;;15.57;100.00
1736;BME280;865;53.672;10.250;2023-05-20T09:28:29;102217.75;;;15.78;100.00
1736;BME280;865;53.672;10.250;2023-05-20T09:30:59;102222.34;;;15.64;100.00
1736;BME280;865;53.672;10.250;2023-05-20T09:33:30;102218.41;;;15.38;100.00
1736;BME280;865;53.672;10.250;2023-05-20T09:36:04;102218.31;;;15.43;100.00
1736;BME280;865;53.672;10.250;2023-05-20T09:38:33;102219.22;;;15.40;100.00
1736;BME280;865;53.672;10.250;2023-05-20T09:41:06;102216.66;;;15.37;100.00
1736;BME280;865;53.672;10.250;2023-05-20T09:43:36;102220.03;;;14.87;100.00
1736;BME280;865;53.672;10.250;2023-05-20T09:46:04;102222.03;;;14.68;100.00
1736;BME280;865;53.672;10.250;2023-05-20T09:48:31;102216.72;;;14.74;100.00
1736;BME280;865;53.672;10.250;2023-05-20T09:51:00;102220.16;;;14.77;100.00
1736;BME280;865;53.672;10.250;2023-05-20T09:53:27;102216.75;;;14.71;100.00
1736;BME280;865;53.672;10.250;2023-05-20T09:55:54;102210.50;;;14.78;100.00
1736;BME280;865;53.672;10.250;2023-05-20T09:58:22;102214.84;;;14.82;100.00
1736;BME280;865;53.672;10.250;2023-05-20T10:00:48;102215.59;;;14.92;100.00
1736;BME280;865;53.672;10.250;2023-05-20T10:03:15;102221.84;;;14.83;100.00
1736;BME280;865;53.672;10.250;2023-05-20T10:11:18;102204.97;;;14.98;100.00
1736;BME280;865;53.672;10.250;2023-05-20T10:13:49;102209.56;;;14.84;100.00
1736;BME280;865;53.672;10.250;2023-05-20T10:18:59;102218.72;;;14.53;100.00
1736;BME280;865;53.672;10.250;2023-05-20T10:21:31;102208.22;;;14.50;100.00
1736;BME280;865;53.672;10.250;2023-05-20T10:24:08;102197.81;;;14.43;100.00
1736;BME280;865;53.672;10.250;2023-05-20T10:26:36;102194.06;;;14.65;100.00
1736;BME280;865;53.672;10.250;2023-05-20T10:29:16;102190.31;;;14.83;100.00
1736;BME280;865;53.672;10.250;2023-05-20T10:31:50;102180.09;;;15.22;100.00
1736;BME280;865;53.672;10.250;2023-05-20T10:34:19;102178.84;;;15.44;100.00
1736;BME280;865;53.672;10.250;2023-05-20T10:37:06;102171.97;;;15.36;100.00
1736;BME280;865;53.672;10.250;2023-05-20T10:39:32;102172.03;;;15.31;100.00
1736;BME280;865;53.672;10.250;2023-05-20T10:42:10;102176.16;;;15.47;100.00
1736;BME280;865;53.672;10.250;2023-05-20T10:44:44;102175.81;;;15.69;100.00
1736;BME280;865;53.672;10.250;2023-05-20T10:47:11;102171.19;;;15.82;100.00
1736;BME280;865;53.672;10.250;2023-05-20T10:49:45;102168.44;;;15.37;100.00
1736;BME280;865;53.672;10.250;2023-05-20T10:52:13;102174.94;;;15.16;100.00
1736;BME280;865;53.672;10.250;2023-05-20T10:54:47;102154.03;;;15.07;100.00
1736;BME280;865;53.672;10.250;2023-05-20T10:57:20;102155.88;;;15.03;100.00
1736;BME280;865;53.672;10.250;2023-05-20T10:59:47;102155.44;;;15.29;100.00
1736;BME280;865;53.672;10.250;2023-05-20T11:02:15;102151.00;;;15.31;100.00
1736;BME280;865;53.672;10.250;2023-05-20T11:04:42;102152.28;;;15.09;100.00
1736;BME280;865;53.672;10.250;2023-05-20T11:07:09;102152.41;;;14.99;100.00
1736;BME280;865;53.672;10.250;2023-05-20T11:09:36;102153.56;;;14.81;100.00
1736;BME280;865;53.672;10.250;2023-05-20T11:12:03;102152.50;;;14.93;100.00
1736;BME280;865;53.672;10.250;2023-05-20T11:14:30;102155.88;;;15.03;100.00
1736;BME280;865;53.672;10.250;2023-05-20T11:16:59;102159.19;;;15.14;100.00
1736;BME280;865;53.672;10.250;2023-05-20T11:19:26;102153.25;;;15.01;100.00
1736;BME280;865;53.672;10.250;2023-05-20T11:21:53;102161.16;;;14.98;100.00
1736;BME280;865;53.672;10.250;2023-05-20T11:24:24;102154.94;;;15.06;100.00
1736;BME280;865;53.672;10.250;2023-05-20T11:26:55;102147.13;;;15.01;100.00
1736;BME280;865;53.672;10.250;2023-05-20T11:29:25;102142.81;;;14.95;100.00
1736;BME280;865;53.672;10.250;2023-05-20T11:31:52;102146.50;;;14.85;100.00
1736;BME280;865;53.672;10.250;2023-05-20T11:34:22;102149.03;;;14.91;100.00
1736;BME280;865;53.672;10.250;2023-05-20T11:36:56;102146.59;;;14.79;100.00
1736;BME280;865;53.672;10.250;2023-05-20T11:39:23;102151.13;;;14.68;100.00
1736;BME280;865;53.672;10.250;2023-05-20T11:41:49;102143.19;;;14.71;100.00
1736;BME280;865;53.672;10.250;2023-05-20T11:44:18;102133.91;;;14.42;100.00
1736;BME280;865;53.672;10.250;2023-05-20T11:46:46;102141.72;;;14.48;100.00
1736;BME280;865;53.672;10.250;2023-05-20T11:49:13;102139.16;;;14.42;100.00
1736;BME280;865;53.672;10.250;2023-05-20T11:51:42;102143.69;;;14.34;100.00
1736;BME280;865;53.672;10.250;2023-05-20T11:54:08;102142.78;;;14.35;100.00
1736;BME280;865;53.672;10.250;2023-05-20T11:56:36;102143.63;;;14.37;100.00
1736;BME280;865;53.672;10.250;2023-05-20T11:59:05;102146.22;;;14.40;100.00
1736;BME280;865;53.672;10.250;2023-05-20T12:01:33;102137.47;;;14.40;100.00
1736;BME280;865;53.672;10.250;2023-05-20T12:04:04;102135.88;;;14.26;100.00
1736;BME280;865;53.672;10.250;2023-05-20T12:06:30;102138.69;;;14.09;100.00
1736;BME280;865;53.672;10.250;2023-05-20T12:09:00;102135.09;;;14.20;100.00
1736;BME280;865;53.672;10.250;2023-05-20T12:11:38;102136.75;;;14.27;100.00
1736;BME280;865;53.672;10.250;2023-05-20T12:14:07;102134.78;;;14.44;100.00
1736;BME280;865;53.672;10.250;2023-05-20T12:16:35;102134.78;;;14.44;100.00
1736;BME280;865;53.672;10.250;2023-05-20T12:19:02;102135.69;;;14.43;100.00
1736;BME280;865;53.672;10.250;2023-05-20T12:21:29;102139.09;;;14.50;100.00
1736;BME280;865;53.672;10.250;2023-05-20T12:23:58;102131.28;;;14.42;100.00
1736;BME280;865;53.672;10.250;2023-05-20T12:26:26;102125.94;;;14.51;100.00
1736;BME280;865;53.672;10.250;2023-05-20T12:28:53;102126.72;;;14.61;100.00
1736;BME280;865;53.672;10.250;2023-05-20T12:31:20;102122.28;;;14.65;100.00
1736;BME280;865;53.672;10.250;2023-05-20T12:33:47;102119.50;;;14.75;100.00
1736;BME280;865;53.672;10.250;2023-05-20T12:36:13;102121.22;;;14.76;100.00
1736;BME280;865;53.672;10.250;2023-05-20T12:38:40;102117.06;;;14.62;100.00
1736;BME280;865;53.672;10.250;2023-05-20T12:41:07;102117.22;;;14.48;100.00
1736;BME280;865;53.672;10.250;2023-05-20T12:43:36;102115.44;;;14.51;100.00
1736;BME280;865;53.672;10.250;2023-05-20T12:46:03;102106.56;;;14.62;100.00
1736;BME280;865;53.672;10.250;2023-05-20T12:48:30;102104.56;;;14.79;100.00
1736;BME280;865;53.672;10.250;2023-05-20T12:50:57;102113.22;;;14.84;100.00
1736;BME280;865;53.672;10.250;2023-05-20T12:53:23;102114.13;;;14.83;100.00
1736;BME280;865;53.672;10.250;2023-05-20T12:55:50;102105.31;;;14.86;100.00
1736;BME280;865;53.672;10.250;2023-05-20T12:58:16;102110.59;;;14.84;100.00
1736;BME280;865;53.672;10.250;2023-05-20T13:00:43;102115.84;;;14.84;100.00
1736;BME280;865;53.672;10.250;2023-05-20T13:03:09;102104.38;;;14.91;100.00
1736;BME280;865;53.672;10.250;2023-05-20T13:05:36;102105.34;;;14.84;100.00
1736;BME280;865;53.672;10.250;2023-05-20T13:08:03;102094.91;;;14.78;100.00
1736;BME280;865;53.672;10.250;2023-05-20T13:10:29;102094.34;;;14.61;100.00
1736;BME280;865;53.672;10.250;2023-05-20T13:12:56;102093.25;;;14.75;100.00
1736;BME280;865;53.672;10.250;2023-05-20T13:15:23;102096.53;;;14.88;100.00